createdAt,value
2017-11-29T00:00:46.483Z,77.57
2017-11-29T00:03:14.022Z,78.17
2017-11-29T00:05:41.528Z,78.16
2017-11-29T00:08:09.036Z,78.03
2017-11-29T00:10:36.603Z,78.34
2017-11-29T00:13:04.137Z,78.36
2017-11-29T00:15:31.638Z,78.70
2017-11-29T00:17:59.150Z,78.84
2017-11-29T00:20:26.675Z,79.00
2017-11-29T00:22:54.185Z,78.62
2017-11-29T00:25:21.760Z,78.64
2017-11-29T00:27:49.309Z,78.93
2017-11-29T00:30:16.892Z,78.67
2017-11-29T00:32:44.390Z,78.83
2017-11-29T00:35:11.916Z,78.23
2017-11-29T00:37:39.408Z,78.50
2017-11-29T00:40:06.940Z,78.56
2017-11-29T00:42:34.432Z,78.31
2017-11-29T00:45:01.928Z,78.26
2017-11-29T00:47:29.497Z,78.47
2017-11-29T00:49:56.985Z,78.29
2017-11-29T00:52:24.488Z,79.50
2017-11-29T00:54:52.022Z,78.12
2017-11-29T00:57:19.527Z,78.26
2017-11-29T00:59:47.015Z,78.40
2017-11-29T01:02:14.566Z,78.49
2017-11-29T01:04:42.058Z,78.20
2017-11-29T01:07:09.551Z,78.22
2017-11-29T01:09:37.061Z,78.74
2017-11-29T01:12:04.556Z,78.66
2017-11-29T01:14:32.124Z,79.10
2017-11-29T01:16:59.621Z,79.28
2017-11-29T01:19:27.115Z,79.18
2017-11-29T01:21:54.641Z,79.57
2017-11-29T01:24:22.135Z,81.55
2017-11-29T01:26:49.826Z,79.03
2017-11-29T01:29:17.317Z,78.73
2017-11-29T01:31:44.832Z,78.99
2017-11-29T01:34:12.450Z,79.05
2017-11-29T01:36:39.950Z,79.87
2017-11-29T01:39:07.457Z,79.91
2017-11-29T01:41:35.190Z,80.39
2017-11-29T01:44:02.690Z,80.18
2017-11-29T01:46:30.186Z,80.51
2017-11-29T01:48:57.706Z,80.24
2017-11-29T01:51:25.213Z,80.42
2017-11-29T01:53:52.707Z,80.16
2017-11-29T01:56:20.257Z,80.06
2017-11-29T01:58:47.754Z,79.99
2017-11-29T02:01:15.255Z,79.99
2017-11-29T02:03:42.777Z,79.91
2017-11-29T02:06:22.122Z,79.77
2017-11-29T02:08:49.654Z,79.94
2017-11-29T02:11:17.138Z,79.90
2017-11-29T02:13:44.680Z,79.83
2017-11-29T02:16:12.219Z,80.49
2017-11-29T02:18:39.762Z,80.17
2017-11-29T02:21:07.255Z,80.21
2017-11-29T02:23:34.946Z,80.24
2017-11-29T02:26:03.281Z,80.50
2017-11-29T02:28:30.834Z,80.35
2017-11-29T02:30:58.328Z,80.21
2017-11-29T02:33:25.903Z,79.83
2017-11-29T02:35:53.469Z,80.10
2017-11-29T02:38:20.961Z,80.29
2017-11-29T02:43:55.133Z,80.15
2017-11-29T02:46:22.657Z,80.25
2017-11-29T02:48:50.152Z,81.03
2017-11-29T02:51:17.726Z,80.63
2017-11-29T02:53:45.227Z,80.70
2017-11-29T02:56:12.771Z,80.69
2017-11-29T02:58:40.304Z,80.97
2017-11-29T03:01:07.801Z,80.75
2017-11-29T03:03:35.282Z,80.89
2017-11-29T03:06:02.805Z,80.95
2017-11-29T03:08:30.296Z,81.07
2017-11-29T03:10:57.778Z,81.58
2017-11-29T03:13:25.312Z,81.69
2017-11-29T03:15:52.794Z,81.79
2017-11-29T03:18:20.371Z,82.17
2017-11-29T03:20:47.897Z,82.14
2017-11-29T03:23:15.387Z,82.17
2017-11-29T03:25:42.892Z,82.21
2017-11-29T03:28:10.435Z,82.42
2017-11-29T03:30:37.927Z,82.02
2017-11-29T03:33:05.417Z,82.00
2017-11-29T03:35:32.950Z,82.24
2017-11-29T03:38:00.538Z,82.53
2017-11-29T03:40:28.040Z,82.72
2017-11-29T03:42:55.574Z,83.15
2017-11-29T03:45:23.114Z,83.13
2017-11-29T03:47:50.606Z,83.51
2017-11-29T03:50:18.122Z,83.18
2017-11-29T03:52:45.691Z,82.85
2017-11-29T03:55:13.232Z,82.39
2017-11-29T03:57:40.809Z,82.92
2017-11-29T04:00:08.301Z,82.90
2017-11-29T04:02:35.921Z,82.54
2017-11-29T04:05:03.417Z,82.71
2017-11-29T04:07:30.914Z,82.79
2017-11-29T04:09:58.442Z,83.09
2017-11-29T04:12:25.935Z,83.15
2017-11-29T04:14:53.625Z,83.18
2017-11-29T04:17:21.174Z,83.06
2017-11-29T04:19:48.678Z,83.25
2017-11-29T04:22:16.230Z,82.97
2017-11-29T04:24:43.729Z,82.76
2017-11-29T04:27:11.332Z,82.87
2017-11-29T04:29:38.856Z,82.82
2017-11-29T04:32:06.355Z,82.79
2017-11-29T04:34:33.853Z,82.97
2017-11-29T04:37:01.414Z,82.80
2017-11-29T04:39:28.922Z,82.76
2017-11-29T04:41:56.410Z,82.78
2017-11-29T04:44:23.936Z,82.63
2017-11-29T04:46:51.489Z,82.29
2017-11-29T04:49:19.038Z,82.12
2017-11-29T04:51:46.573Z,82.14
2017-11-29T04:54:14.069Z,82.05
2017-11-29T04:56:41.613Z,82.61
2017-11-29T04:59:09.150Z,82.69
2017-11-29T05:01:36.740Z,82.70
2017-11-29T05:04:04.225Z,83.00
2017-11-29T05:06:31.759Z,83.55
2017-11-29T05:08:59.286Z,83.82
2017-11-29T05:11:26.817Z,83.98
2017-11-29T05:13:54.316Z,84.11
2017-11-29T05:16:21.825Z,84.02
2017-11-29T05:18:49.363Z,84.14
2017-11-29T05:21:16.850Z,84.38
2017-11-29T05:23:44.364Z,84.13
2017-11-29T05:26:11.943Z,83.93
2017-11-29T05:28:39.430Z,83.75
2017-11-29T05:31:06.930Z,83.22
2017-11-29T05:33:34.448Z,83.39
2017-11-29T05:36:02.002Z,83.29
2017-11-29T05:38:29.498Z,83.34
2017-11-29T05:40:57.007Z,83.42
2017-11-29T05:43:24.537Z,83.50
2017-11-29T05:45:52.033Z,83.66
2017-11-29T05:48:19.541Z,83.62
2017-11-29T05:50:47.070Z,83.58
2017-11-29T05:53:14.579Z,84.00
2017-11-29T05:55:42.079Z,83.42
2017-11-29T05:58:09.693Z,83.50
2017-11-29T06:00:37.434Z,83.76
2017-11-29T06:03:04.934Z,83.71
2017-11-29T06:05:32.481Z,83.58
2017-11-29T06:08:00.024Z,83.79
2017-11-29T06:10:27.529Z,83.55
2017-11-29T06:12:55.075Z,83.42
2017-11-29T06:15:22.587Z,83.47
2017-11-29T06:17:50.088Z,83.40
2017-11-29T06:20:17.739Z,83.33
2017-11-29T06:22:45.268Z,83.28
2017-11-29T06:25:12.831Z,83.46
2017-11-29T06:27:40.391Z,83.09
2017-11-29T06:30:07.901Z,83.34
2017-11-29T06:32:35.402Z,83.26
2017-11-29T06:35:02.989Z,83.34
2017-11-29T06:37:30.501Z,83.07
2017-11-29T06:39:58.001Z,83.10
2017-11-29T06:42:25.541Z,83.30
2017-11-29T06:44:53.045Z,83.01
2017-11-29T06:47:20.543Z,82.98
2017-11-29T06:49:48.134Z,82.98
2017-11-29T06:52:15.688Z,82.87
2017-11-29T06:54:43.211Z,83.07
2017-11-29T06:57:10.733Z,83.58
2017-11-29T06:59:38.252Z,83.95
2017-11-29T07:02:05.750Z,83.55
2017-11-29T07:04:33.286Z,83.35
2017-11-29T07:07:00.788Z,83.54
2017-11-29T07:09:28.290Z,83.22
2017-11-29T07:11:55.832Z,82.76
2017-11-29T07:14:23.335Z,82.29
2017-11-29T07:16:50.846Z,82.10
2017-11-29T07:19:18.366Z,82.02
2017-11-29T07:21:45.983Z,82.09
2017-11-29T07:24:13.482Z,82.05
2017-11-29T07:26:40.981Z,82.10
2017-11-29T07:29:08.663Z,82.40
2017-11-29T07:31:36.162Z,82.06
2017-11-29T07:34:03.673Z,82.32
2017-11-29T07:36:31.214Z,82.08
2017-11-29T07:38:58.727Z,82.22
2017-11-29T07:41:26.224Z,81.80
2017-11-29T07:43:53.827Z,81.45
2017-11-29T07:46:21.333Z,81.26
2017-11-29T07:48:48.844Z,81.30
2017-11-29T07:51:16.395Z,81.12
2017-11-29T07:53:43.884Z,80.72
2017-11-29T07:56:11.427Z,80.75
2017-11-29T07:58:38.953Z,80.59
2017-11-29T08:01:06.450Z,80.64
2017-11-29T08:03:33.985Z,80.66
2017-11-29T08:06:01.480Z,80.96
2017-11-29T08:08:28.986Z,81.17
2017-11-29T08:10:56.510Z,80.74
2017-11-29T08:13:24.019Z,80.39
2017-11-29T08:15:51.534Z,80.33
2017-11-29T08:18:19.079Z,80.59
2017-11-29T08:20:46.648Z,80.96
2017-11-29T08:23:14.189Z,81.45
2017-11-29T08:25:41.924Z,81.70
2017-11-29T08:28:09.434Z,81.65
2017-11-29T08:30:36.940Z,81.52
2017-11-29T08:33:04.513Z,81.34
2017-11-29T08:35:32.012Z,81.52
2017-11-29T08:37:59.514Z,81.81
2017-11-29T08:40:27.040Z,81.48
2017-11-29T08:42:54.617Z,81.10
2017-11-29T08:45:22.121Z,81.11
2017-11-29T08:47:49.665Z,81.04
2017-11-29T08:50:17.180Z,80.09
2017-11-29T08:52:44.678Z,80.14
2017-11-29T08:55:12.215Z,79.96
2017-11-29T08:57:39.720Z,79.86
2017-11-29T09:00:07.218Z,79.80
2017-11-29T09:02:34.751Z,79.71
2017-11-29T09:05:02.253Z,79.78
2017-11-29T09:07:29.908Z,79.50
2017-11-29T09:09:57.463Z,79.62
2017-11-29T09:12:25.030Z,79.86
2017-11-29T09:14:52.529Z,77.92
2017-11-29T09:17:20.191Z,77.90
2017-11-29T09:19:47.944Z,75.15
2017-11-29T09:22:15.560Z,74.41
2017-11-29T09:24:43.109Z,74.79
2017-11-29T09:27:10.609Z,75.55
2017-11-29T09:29:38.211Z,76.47
2017-11-29T09:32:05.910Z,77.43
2017-11-29T09:34:33.669Z,77.53
2017-11-29T09:37:01.318Z,77.67
2017-11-29T09:39:29.005Z,77.51
2017-11-29T09:41:56.646Z,77.14
2017-11-29T09:44:24.142Z,76.89
2017-11-29T09:46:51.673Z,77.35
2017-11-29T09:49:19.336Z,77.05
2017-11-29T09:51:46.852Z,76.90
2017-11-29T09:54:14.686Z,76.72
2017-11-29T09:56:42.202Z,76.92
2017-11-29T09:59:09.844Z,76.60
2017-11-29T10:01:37.554Z,76.67
2017-11-29T10:04:05.054Z,76.50
2017-11-29T10:06:32.674Z,76.38
2017-11-29T10:09:00.216Z,76.06
2017-11-29T10:11:27.728Z,75.97
2017-11-29T10:13:55.338Z,75.94
2017-11-29T10:16:23.017Z,75.22
2017-11-29T10:18:50.529Z,75.59
2017-11-29T10:21:18.033Z,75.72
2017-11-29T10:23:45.785Z,75.69
2017-11-29T10:26:13.345Z,75.43
2017-11-29T10:28:40.988Z,75.04
2017-11-29T10:31:08.544Z,74.76
2017-11-29T10:33:36.042Z,74.74
2017-11-29T10:36:03.538Z,74.76
2017-11-29T10:38:31.148Z,74.24
2017-11-29T10:40:58.898Z,74.12
2017-11-29T10:43:26.449Z,74.21
2017-11-29T10:45:54.197Z,74.12
2017-11-29T10:48:21.859Z,73.88
2017-11-29T10:50:49.406Z,74.05
2017-11-29T10:53:17.002Z,73.67
2017-11-29T10:55:44.501Z,73.30
2017-11-29T10:58:12.053Z,73.37
2017-11-29T11:00:39.791Z,72.80
2017-11-29T11:03:07.293Z,73.29
2017-11-29T11:05:34.840Z,73.01
2017-11-29T11:08:02.359Z,72.56
2017-11-29T11:10:29.987Z,72.20
2017-11-29T11:12:57.518Z,72.27
2017-11-29T11:15:25.010Z,72.38
2017-11-29T11:17:52.569Z,72.14
2017-11-29T11:20:20.101Z,71.86
2017-11-29T11:22:47.594Z,71.62
2017-11-29T11:25:15.245Z,71.48
2017-11-29T11:27:42.942Z,71.29
2017-11-29T11:30:10.516Z,71.02
2017-11-29T11:32:38.165Z,71.18
2017-11-29T11:35:05.821Z,71.52
2017-11-29T11:37:33.466Z,71.42
2017-11-29T11:40:00.980Z,71.45
2017-11-29T11:42:28.719Z,71.56
2017-11-29T11:44:56.271Z,70.95
2017-11-29T11:47:23.942Z,70.96
2017-11-29T11:49:51.693Z,71.16
2017-11-29T11:52:19.320Z,70.74
2017-11-29T11:54:46.826Z,71.12
2017-11-29T11:57:14.422Z,70.64
2017-11-29T11:59:41.946Z,70.29
2017-11-29T12:02:09.469Z,70.64
2017-11-29T12:04:37.010Z,70.92
2017-11-29T12:07:04.518Z,71.21
2017-11-29T12:09:32.023Z,71.25
2017-11-29T12:11:59.563Z,71.12
2017-11-29T12:14:27.092Z,70.77
2017-11-29T12:16:54.596Z,70.62
2017-11-29T12:19:22.159Z,70.45
2017-11-29T12:21:49.660Z,70.10
2017-11-29T12:24:17.162Z,70.34
2017-11-29T12:26:44.725Z,70.83
2017-11-29T12:29:12.230Z,70.57
2017-11-29T12:31:39.769Z,70.39
2017-11-29T12:34:07.266Z,70.84
2017-11-29T12:36:34.801Z,71.27
2017-11-29T12:39:02.481Z,71.54
2017-11-29T12:41:29.985Z,71.60
2017-11-29T12:43:57.496Z,72.03
2017-11-29T12:46:25.161Z,72.04
2017-11-29T12:49:04.453Z,72.16
2017-11-29T12:51:32.036Z,71.97
2017-11-29T12:53:59.537Z,72.32
2017-11-29T12:56:27.043Z,72.41
2017-11-29T12:58:54.582Z,72.40
2017-11-29T13:01:22.089Z,72.33
2017-11-29T13:03:49.581Z,72.14
2017-11-29T13:06:17.120Z,72.18
2017-11-29T13:08:44.628Z,72.16
2017-11-29T13:11:12.123Z,71.84
2017-11-29T13:13:39.669Z,72.13
2017-11-29T13:16:07.163Z,72.11
2017-11-29T13:18:34.691Z,72.50
2017-11-29T13:21:02.232Z,72.43
2017-11-29T13:23:29.741Z,72.46
2017-11-29T13:25:57.261Z,72.38
2017-11-29T13:28:24.820Z,72.09
2017-11-29T13:30:52.350Z,72.27
2017-11-29T13:33:19.853Z,72.09
2017-11-29T13:35:47.389Z,72.31
2017-11-29T13:38:14.917Z,72.56
2017-11-29T13:40:42.418Z,73.29
2017-11-29T13:43:09.970Z,72.91
2017-11-29T13:45:37.510Z,73.18
2017-11-29T13:48:05.021Z,73.50
2017-11-29T13:50:32.542Z,73.37
2017-11-29T13:53:00.039Z,73.82
2017-11-29T13:58:01.467Z,74.34
2017-11-29T14:00:29.017Z,73.96
2017-11-29T14:02:56.705Z,73.78
2017-11-29T14:05:24.316Z,74.04
2017-11-29T14:07:51.864Z,74.60
2017-11-29T14:10:19.369Z,74.29
2017-11-29T14:12:46.912Z,74.66
2017-11-29T14:15:14.480Z,74.78
2017-11-29T14:17:41.985Z,75.09
2017-11-29T14:20:10.287Z,75.38
2017-11-29T14:22:37.845Z,76.14
2017-11-29T14:25:05.346Z,75.88
2017-11-29T14:27:32.901Z,75.42
2017-11-29T14:30:00.453Z,75.81
2017-11-29T14:32:27.957Z,75.46
2017-11-29T14:34:55.464Z,76.95
2017-11-29T14:37:22.982Z,76.01
2017-11-29T14:39:50.487Z,75.99
2017-11-29T14:42:18.010Z,76.07
2017-11-29T14:44:45.515Z,76.31
2017-11-29T14:47:13.175Z,76.53
2017-11-29T14:49:40.704Z,76.73
2017-11-29T14:52:08.220Z,77.29
2017-11-29T14:54:35.742Z,77.48
2017-11-29T14:57:03.316Z,77.45
2017-11-29T14:59:30.809Z,77.35
2017-11-29T15:01:58.314Z,77.97
2017-11-29T15:04:25.841Z,77.68
2017-11-29T15:06:53.354Z,77.76
2017-11-29T15:09:20.857Z,77.93
2017-11-29T15:11:48.389Z,78.39
2017-11-29T15:14:15.889Z,78.63
2017-11-29T15:16:43.569Z,78.58
2017-11-29T15:19:11.068Z,78.61
2017-11-29T15:21:38.561Z,79.09
2017-11-29T15:24:13.707Z,78.95
2017-11-29T15:26:41.270Z,79.35
2017-11-29T15:29:08.781Z,79.16
2017-11-29T15:31:36.338Z,79.40
2017-11-29T15:34:03.850Z,79.65
2017-11-29T15:36:31.365Z,79.33
2017-11-29T15:38:58.909Z,79.57
2017-11-29T15:41:26.419Z,79.82
2017-11-29T15:43:54.058Z,80.12
2017-11-29T15:46:21.613Z,80.01
2017-11-29T15:48:49.122Z,80.05
2017-11-29T15:51:16.666Z,79.75
2017-11-29T15:53:44.266Z,80.02
2017-11-29T15:56:11.770Z,79.95
2017-11-29T15:58:39.281Z,80.31
2017-11-29T16:01:07.029Z,80.30
2017-11-29T16:03:34.537Z,80.60
2017-11-29T16:06:02.034Z,80.33
2017-11-29T16:08:29.577Z,80.13
2017-11-29T16:10:57.087Z,80.26
2017-11-29T16:13:24.635Z,80.17
2017-11-29T16:15:52.149Z,80.10
2017-11-29T16:18:19.667Z,80.24
2017-11-29T16:20:47.248Z,80.13
2017-11-29T16:23:14.757Z,80.15
2017-11-29T16:25:42.261Z,80.21
2017-11-29T16:28:09.806Z,80.49
2017-11-29T16:30:37.367Z,80.38
2017-11-29T16:33:04.882Z,80.53
2017-11-29T16:35:32.442Z,80.46
2017-11-29T16:37:59.942Z,80.59
2017-11-29T16:40:27.691Z,80.72
2017-11-29T16:42:55.610Z,80.69
2017-11-29T16:45:23.124Z,81.07
2017-11-29T16:47:50.630Z,80.91
2017-11-29T16:50:18.187Z,80.75
2017-11-29T16:52:45.704Z,80.43
2017-11-29T16:55:13.219Z,80.44
2017-11-29T16:57:40.770Z,80.67
2017-11-29T17:00:08.417Z,80.32
2017-11-29T17:02:35.925Z,80.03
2017-11-29T17:05:03.465Z,79.89
2017-11-29T17:07:30.978Z,79.91
2017-11-29T17:09:58.523Z,79.95
2017-11-29T17:12:26.040Z,79.98
2017-11-29T17:14:53.573Z,80.11
2017-11-29T17:17:21.085Z,80.11
2017-11-29T17:19:48.584Z,80.27
2017-11-29T17:22:16.116Z,80.65
2017-11-29T17:24:43.620Z,80.70
2017-11-29T17:27:11.135Z,80.93
2017-11-29T17:29:50.558Z,80.78
2017-11-29T17:32:18.055Z,80.74
2017-11-29T17:34:45.560Z,80.51
2017-11-29T17:37:13.097Z,80.79
2017-11-29T17:39:40.599Z,80.57
2017-11-29T17:42:08.100Z,80.35
2017-11-29T17:44:35.633Z,80.55
2017-11-29T17:47:03.128Z,80.46
2017-11-29T17:49:30.624Z,80.62
2017-11-29T17:51:58.154Z,80.56
2017-11-29T17:54:25.683Z,80.57
2017-11-29T17:56:53.193Z,80.86
2017-11-29T17:59:20.754Z,80.83
2017-11-29T18:01:48.272Z,80.66
2017-11-29T18:04:15.913Z,80.91
2017-11-29T18:06:43.440Z,81.32
2017-11-29T18:09:11.026Z,80.70
2017-11-29T18:11:38.564Z,80.72
2017-11-29T18:14:06.062Z,80.75
2017-11-29T18:16:33.589Z,80.91
2017-11-29T18:19:01.106Z,80.74
2017-11-29T18:21:28.598Z,80.70
2017-11-29T18:23:56.154Z,81.00
2017-11-29T18:26:23.791Z,80.92
2017-11-29T18:28:51.287Z,81.15
2017-11-29T18:31:18.834Z,81.29
2017-11-29T18:33:46.344Z,81.49
2017-11-29T18:36:13.841Z,81.73
2017-11-29T18:38:41.469Z,82.16
2017-11-29T18:41:08.974Z,80.34
2017-11-29T18:43:36.489Z,80.61
2017-11-29T18:46:04.009Z,81.42
2017-11-29T18:48:31.537Z,80.56
2017-11-29T18:50:59.181Z,80.70
2017-11-29T18:53:26.675Z,81.17
2017-11-29T18:55:54.193Z,81.20
2017-11-29T18:58:21.752Z,81.42
2017-11-29T19:00:49.267Z,81.51
2017-11-29T19:05:50.755Z,82.15
2017-11-29T19:08:18.329Z,82.65
2017-11-29T19:10:45.885Z,82.70
2017-11-29T19:13:13.446Z,82.38
2017-11-29T19:15:40.993Z,82.39
2017-11-29T19:18:08.490Z,82.68
2017-11-29T19:20:35.990Z,82.59
2017-11-29T19:23:03.563Z,83.06
2017-11-29T19:25:31.062Z,82.99
2017-11-29T19:27:58.608Z,82.94
2017-11-29T19:30:26.184Z,82.76
2017-11-29T19:32:53.727Z,82.78
2017-11-29T19:35:21.290Z,82.84
2017-11-29T19:37:48.781Z,83.06
2017-11-29T19:40:16.320Z,82.73
2017-11-29T19:42:43.834Z,83.32
2017-11-29T19:45:11.424Z,83.13
2017-11-29T19:47:38.979Z,83.15
2017-11-29T19:50:06.505Z,83.43
2017-11-29T19:52:34.019Z,83.95
2017-11-29T19:55:01.558Z,83.86
2017-11-29T19:57:29.063Z,84.16
2017-11-29T19:59:56.561Z,84.15
2017-11-29T20:02:24.138Z,84.23
2017-11-29T20:04:51.696Z,84.43
2017-11-29T20:07:19.194Z,84.23
2017-11-29T20:09:46.712Z,84.16
2017-11-29T20:12:14.246Z,84.20
2017-11-29T20:14:41.831Z,84.28
2017-11-29T20:17:09.321Z,83.81
2017-11-29T20:19:36.843Z,84.00
2017-11-29T20:22:04.343Z,83.32
2017-11-29T20:24:31.968Z,83.46
2017-11-29T20:26:59.476Z,83.85
2017-11-29T20:29:27.069Z,83.25
2017-11-29T20:31:54.596Z,83.48
2017-11-29T20:34:22.123Z,83.45
2017-11-29T20:36:49.668Z,83.39
2017-11-29T20:39:17.184Z,83.12
2017-11-29T20:41:44.765Z,83.00
2017-11-29T20:44:12.338Z,83.14
2017-11-29T20:46:39.858Z,82.96
2017-11-29T20:49:07.358Z,83.19
2017-11-29T20:51:34.897Z,83.26
2017-11-29T20:54:02.462Z,82.89
2017-11-29T20:56:29.959Z,82.89
2017-11-29T20:58:57.501Z,82.90
2017-11-29T21:01:25.053Z,82.96
2017-11-29T21:03:52.590Z,82.93
2017-11-29T21:06:20.166Z,82.80
2017-11-29T21:08:47.717Z,83.15
2017-11-29T21:11:15.214Z,83.14
2017-11-29T21:13:42.780Z,83.26
2017-11-29T21:16:10.284Z,82.88
2017-11-29T21:18:37.789Z,83.08
2017-11-29T21:21:05.405Z,82.90
2017-11-29T21:23:32.904Z,83.06
2017-11-29T21:26:00.406Z,83.33
2017-11-29T21:28:27.949Z,83.24
2017-11-29T21:30:55.450Z,82.91
2017-11-29T21:33:22.969Z,83.22
2017-11-29T21:35:50.550Z,83.21
2017-11-29T21:38:18.048Z,83.22
2017-11-29T21:40:45.541Z,83.69
2017-11-29T21:43:13.069Z,83.89
2017-11-29T21:45:40.581Z,84.50
2017-11-29T21:48:08.088Z,83.69
2017-11-29T21:50:35.609Z,83.77
2017-11-29T21:53:03.105Z,83.37
2017-11-29T21:55:30.651Z,83.55
2017-11-29T21:57:58.158Z,83.86
2017-11-29T22:00:25.653Z,84.12
2017-11-29T22:02:53.193Z,83.97
2017-11-29T22:05:20.689Z,83.73
2017-11-29T22:07:48.213Z,83.98
2017-11-29T22:10:15.753Z,83.75
2017-11-29T22:12:43.257Z,83.58
2017-11-29T22:15:10.753Z,84.29
2017-11-29T22:17:38.320Z,83.67
2017-11-29T22:20:05.815Z,83.83
2017-11-29T22:22:33.318Z,83.28
2017-11-29T22:25:01.249Z,83.26
2017-11-29T22:27:28.768Z,82.74
2017-11-29T22:29:56.261Z,82.43
2017-11-29T22:32:23.809Z,82.48
2017-11-29T22:34:51.306Z,82.58
2017-11-29T22:37:18.827Z,82.74
2017-11-29T22:39:46.354Z,82.73
2017-11-29T22:42:13.859Z,83.07
2017-11-29T22:44:41.354Z,82.89
2017-11-29T22:47:09.385Z,82.83
2017-11-29T22:49:36.879Z,82.74
2017-11-29T22:52:04.396Z,82.55
2017-11-29T22:54:31.957Z,83.00
2017-11-29T22:56:59.461Z,82.81
2017-11-29T22:59:27.283Z,82.85
2017-11-29T23:01:54.817Z,83.25
2017-11-29T23:04:22.317Z,83.82
2017-11-29T23:06:49.860Z,84.11
2017-11-29T23:09:17.363Z,84.87
2017-11-29T23:11:44.860Z,84.48
2017-11-29T23:14:12.397Z,84.44
2017-11-29T23:16:39.900Z,84.98
2017-11-29T23:19:07.398Z,84.86
2017-11-29T23:21:34.996Z,84.83
2017-11-29T23:24:02.505Z,84.74
2017-11-29T23:26:30.003Z,84.69
2017-11-29T23:28:57.536Z,84.85
2017-11-29T23:31:25.064Z,84.77
2017-11-29T23:33:52.592Z,84.44
2017-11-29T23:36:20.091Z,84.27
2017-11-29T23:38:47.806Z,84.33
2017-11-29T23:41:15.331Z,84.04
2017-11-29T23:43:42.834Z,84.23
2017-11-29T23:46:10.368Z,84.17
2017-11-29T23:48:37.859Z,84.39
2017-11-29T23:51:05.360Z,84.15
2017-11-29T23:53:32.922Z,84.00
2017-11-29T23:56:00.422Z,84.48
2017-11-29T23:58:27.923Z,84.53
